sensor_id;sensor_type;location;lat;lon;timestamp;pressure;altitude;pressure_sealevel;temperature
68588;BMP180;55560;52.174;20.996;2024-02-28T00:00:21;100430.40;;;12.50
68588;BMP180;55560;52.174;20.996;2024-02-28T00:03:09;100426.80;;;12.50
68588;BMP180;55560;52.174;20.996;2024-02-28T00:05:37;100428.00;;;12.50
68588;BMP180;55560;52.174;20.996;2024-02-28T00:08:06;100435.00;;;12.50
68588;BMP180;55560;52.174;20.996;2024-02-28T00:10:34;100438.40;;;12.50
68588;BMP180;55560;52.174;20.996;2024-02-28T00:13:01;100434.20;;;12.48
68588;BMP180;55560;52.174;20.996;2024-02-28T00:15:29;100439.20;;;12.40
68588;BMP180;55560;52.174;20.996;2024-02-28T00:17:57;100438.40;;;12.40
68588;BMP180;55560;52.174;20.996;2024-02-28T00:20:25;100435.00;;;12.40
68588;BMP180;55560;52.174;20.996;2024-02-28T00:22:55;100432.40;;;12.40
68588;BMP180;55560;52.174;20.996;2024-02-28T00:25:23;100426.00;;;12.40
68588;BMP180;55560;52.174;20.996;2024-02-28T00:27:51;100434.40;;;12.44
68588;BMP180;55560;52.174;20.996;2024-02-28T00:30:19;100436.40;;;12.46
68588;BMP180;55560;52.174;20.996;2024-02-28T00:32:47;100446.00;;;12.40
68588;BMP180;55560;52.174;20.996;2024-02-28T00:35:16;100443.60;;;12.40
68588;BMP180;55560;52.174;20.996;2024-02-28T00:37:44;100438.80;;;12.48
68588;BMP180;55560;52.174;20.996;2024-02-28T00:40:12;100444.60;;;12.50
68588;BMP180;55560;52.174;20.996;2024-02-28T00:42:40;100446.60;;;12.48
68588;BMP180;55560;52.174;20.996;2024-02-28T00:45:09;100444.60;;;12.40
68588;BMP180;55560;52.174;20.996;2024-02-28T00:47:37;100448.20;;;12.40
68588;BMP180;55560;52.174;20.996;2024-02-28T00:50:07;100446.60;;;12.40
68588;BMP180;55560;52.174;20.996;2024-02-28T00:52:35;100444.60;;;12.34
68588;BMP180;55560;52.174;20.996;2024-02-28T00:55:03;100443.80;;;12.30
68588;BMP180;55560;52.174;20.996;2024-02-28T00:57:32;100440.60;;;12.30
68588;BMP180;55560;52.174;20.996;2024-02-28T01:00:00;100441.60;;;12.30
68588;BMP180;55560;52.174;20.996;2024-02-28T01:02:28;100443.00;;;12.30
68588;BMP180;55560;52.174;20.996;2024-02-28T01:04:56;100454.60;;;12.20
68588;BMP180;55560;52.174;20.996;2024-02-28T01:07:24;100462.20;;;12.20
68588;BMP180;55560;52.174;20.996;2024-02-28T01:09:53;100461.00;;;12.20
68588;BMP180;55560;52.174;20.996;2024-02-28T01:12:21;100466.40;;;12.20
68588;BMP180;55560;52.174;20.996;2024-02-28T01:14:49;100472.20;;;12.14
68588;BMP180;55560;52.174;20.996;2024-02-28T01:17:17;100467.60;;;12.10
68588;BMP180;55560;52.174;20.996;2024-02-28T01:19:45;100461.60;;;12.10
68588;BMP180;55560;52.174;20.996;2024-02-28T01:22:13;100469.40;;;12.00
68588;BMP180;55560;52.174;20.996;2024-02-28T01:24:40;100474.20;;;12.00
68588;BMP180;55560;52.174;20.996;2024-02-28T01:27:08;100478.40;;;12.00
68588;BMP180;55560;52.174;20.996;2024-02-28T01:29:36;100485.00;;;12.00
68588;BMP180;55560;52.174;20.996;2024-02-28T01:32:04;100486.60;;;11.90
68588;BMP180;55560;52.174;20.996;2024-02-28T01:34:32;100478.60;;;11.90
68588;BMP180;55560;52.174;20.996;2024-02-28T01:37:00;100490.20;;;11.90
68588;BMP180;55560;52.174;20.996;2024-02-28T01:39:28;100491.20;;;11.90
68588;BMP180;55560;52.174;20.996;2024-02-28T01:41:56;100484.00;;;11.88
68588;BMP180;55560;52.174;20.996;2024-02-28T01:44:24;100487.60;;;11.80
68588;BMP180;55560;52.174;20.996;2024-02-28T01:46:52;100481.60;;;11.80
68588;BMP180;55560;52.174;20.996;2024-02-28T01:49:24;100481.20;;;11.80
68588;BMP180;55560;52.174;20.996;2024-02-28T01:51:52;100478.40;;;11.80
68588;BMP180;55560;52.174;20.996;2024-02-28T01:54:22;100481.80;;;11.80
68588;BMP180;55560;52.174;20.996;2024-02-28T01:56:50;100485.60;;;11.80
68588;BMP180;55560;52.174;20.996;2024-02-28T01:59:18;100480.40;;;11.80
68588;BMP180;55560;52.174;20.996;2024-02-28T02:01:46;100478.60;;;11.76
68588;BMP180;55560;52.174;20.996;2024-02-28T02:04:14;100478.00;;;11.70
68588;BMP180;55560;52.174;20.996;2024-02-28T02:06:44;100479.60;;;11.70
68588;BMP180;55560;52.174;20.996;2024-02-28T02:09:13;100485.80;;;11.70
68588;BMP180;55560;52.174;20.996;2024-02-28T02:11:41;100481.20;;;11.60
68588;BMP180;55560;52.174;20.996;2024-02-28T02:14:09;100487.00;;;11.60
68588;BMP180;55560;52.174;20.996;2024-02-28T02:16:37;100495.40;;;11.60
68588;BMP180;55560;52.174;20.996;2024-02-28T02:19:05;100486.40;;;11.52
68588;BMP180;55560;52.174;20.996;2024-02-28T02:21:49;100487.40;;;11.50
68588;BMP180;55560;52.174;20.996;2024-02-28T02:24:18;100487.60;;;11.50
68588;BMP180;55560;52.174;20.996;2024-02-28T02:26:46;100482.40;;;11.50
68588;BMP180;55560;52.174;20.996;2024-02-28T02:29:14;100471.20;;;11.50
68588;BMP180;55560;52.174;20.996;2024-02-28T02:31:42;100470.60;;;11.50
68588;BMP180;55560;52.174;20.996;2024-02-28T02:34:10;100470.20;;;11.56
68588;BMP180;55560;52.174;20.996;2024-02-28T02:36:38;100466.40;;;11.58
68588;BMP180;55560;52.174;20.996;2024-02-28T02:39:06;100457.80;;;11.60
68588;BMP180;55560;52.174;20.996;2024-02-28T02:41:35;100453.20;;;11.58
68588;BMP180;55560;52.174;20.996;2024-02-28T02:44:03;100440.00;;;11.50
68588;BMP180;55560;52.174;20.996;2024-02-28T02:46:31;100435.00;;;11.50
68588;BMP180;55560;52.174;20.996;2024-02-28T02:48:59;100437.80;;;11.50
68588;BMP180;55560;52.174;20.996;2024-02-28T02:51:27;100434.40;;;11.50
68588;BMP180;55560;52.174;20.996;2024-02-28T02:53:55;100436.00;;;11.50
68588;BMP180;55560;52.174;20.996;2024-02-28T02:56:23;100442.60;;;11.54
68588;BMP180;55560;52.174;20.996;2024-02-28T02:58:51;100442.80;;;11.50
68588;BMP180;55560;52.174;20.996;2024-02-28T03:01:18;100447.80;;;11.50
68588;BMP180;55560;52.174;20.996;2024-02-28T03:03:48;100453.40;;;11.50
68588;BMP180;55560;52.174;20.996;2024-02-28T03:06:16;100453.40;;;11.50
68588;BMP180;55560;52.174;20.996;2024-02-28T03:08:44;100458.40;;;11.44
68588;BMP180;55560;52.174;20.996;2024-02-28T03:11:11;100460.20;;;11.40
68588;BMP180;55560;52.174;20.996;2024-02-28T03:13:39;100460.80;;;11.40
68588;BMP180;55560;52.174;20.996;2024-02-28T03:16:07;100466.20;;;11.40
68588;BMP180;55560;52.174;20.996;2024-02-28T03:18:35;100466.20;;;11.30
68588;BMP180;55560;52.174;20.996;2024-02-28T03:21:03;100474.80;;;11.30
68588;BMP180;55560;52.174;20.996;2024-02-28T03:23:32;100475.00;;;11.30
68588;BMP180;55560;52.174;20.996;2024-02-28T03:26:00;100479.40;;;11.20
68588;BMP180;55560;52.174;20.996;2024-02-28T03:28:28;100481.20;;;11.20
68588;BMP180;55560;52.174;20.996;2024-02-28T03:30:56;100475.80;;;11.20
68588;BMP180;55560;52.174;20.996;2024-02-28T03:33:24;100477.80;;;11.20
68588;BMP180;55560;52.174;20.996;2024-02-28T03:35:52;100484.20;;;11.20
68588;BMP180;55560;52.174;20.996;2024-02-28T03:38:20;100480.60;;;11.20
68588;BMP180;55560;52.174;20.996;2024-02-28T03:40:48;100476.80;;;11.20
68588;BMP180;55560;52.174;20.996;2024-02-28T03:43:16;100477.00;;;11.20
68588;BMP180;55560;52.174;20.996;2024-02-28T03:45:44;100472.40;;;11.20
68588;BMP180;55560;52.174;20.996;2024-02-28T03:48:12;100465.40;;;11.20
68588;BMP180;55560;52.174;20.996;2024-02-28T03:50:40;100467.80;;;11.20
68588;BMP180;55560;52.174;20.996;2024-02-28T03:53:08;100466.60;;;11.20
68588;BMP180;55560;52.174;20.996;2024-02-28T03:55:36;100468.80;;;11.20
68588;BMP180;55560;52.174;20.996;2024-02-28T03:58:05;100463.80;;;11.20
68588;BMP180;55560;52.174;20.996;2024-02-28T04:00:36;100459.20;;;11.20
68588;BMP180;55560;52.174;20.996;2024-02-28T04:03:05;100455.60;;;11.20
68588;BMP180;55560;52.174;20.996;2024-02-28T04:05:33;100453.00;;;11.22
68588;BMP180;55560;52.174;20.996;2024-02-28T04:08:01;100451.80;;;11.20
68588;BMP180;55560;52.174;20.996;2024-02-28T04:10:28;100451.40;;;11.26
68588;BMP180;55560;52.174;20.996;2024-02-28T04:12:56;100449.80;;;11.28
68588;BMP180;55560;52.174;20.996;2024-02-28T04:15:24;100455.60;;;11.28
68588;BMP180;55560;52.174;20.996;2024-02-28T04:17:54;100456.20;;;11.20
68588;BMP180;55560;52.174;20.996;2024-02-28T04:20:21;100453.00;;;11.20
68588;BMP180;55560;52.174;20.996;2024-02-28T04:22:49;100461.20;;;11.20
68588;BMP180;55560;52.174;20.996;2024-02-28T04:25:17;100458.40;;;11.12
68588;BMP180;55560;52.174;20.996;2024-02-28T04:27:45;100460.80;;;11.10
68588;BMP180;55560;52.174;20.996;2024-02-28T04:30:14;100459.80;;;11.10
68588;BMP180;55560;52.174;20.996;2024-02-28T04:32:43;100460.20;;;11.10
68588;BMP180;55560;52.174;20.996;2024-02-28T04:35:10;100465.40;;;11.10
68588;BMP180;55560;52.174;20.996;2024-02-28T04:37:38;100462.80;;;11.10
68588;BMP180;55560;52.174;20.996;2024-02-28T04:40:07;100469.60;;;11.10
68588;BMP180;55560;52.174;20.996;2024-02-28T04:42:34;100473.80;;;11.10
68588;BMP180;55560;52.174;20.996;2024-02-28T04:45:04;100473.60;;;11.00
68588;BMP180;55560;52.174;20.996;2024-02-28T04:47:32;100478.40;;;11.00
68588;BMP180;55560;52.174;20.996;2024-02-28T04:50:10;100482.80;;;10.98
68588;BMP180;55560;52.174;20.996;2024-02-28T04:52:39;100491.00;;;10.90
68588;BMP180;55560;52.174;20.996;2024-02-28T04:55:07;100491.40;;;10.90
68588;BMP180;55560;52.174;20.996;2024-02-28T04:57:35;100491.40;;;10.90
68588;BMP180;55560;52.174;20.996;2024-02-28T05:00:04;100495.40;;;10.82
68588;BMP180;55560;52.174;20.996;2024-02-28T05:02:32;100497.00;;;10.80
68588;BMP180;55560;52.174;20.996;2024-02-28T05:05:00;100498.80;;;10.80
68588;BMP180;55560;52.174;20.996;2024-02-28T05:07:28;100497.60;;;10.80
68588;BMP180;55560;52.174;20.996;2024-02-28T05:09:55;100493.60;;;10.70
68588;BMP180;55560;52.174;20.996;2024-02-28T05:12:23;100494.80;;;10.70
68588;BMP180;55560;52.174;20.996;2024-02-28T05:14:51;100496.40;;;10.70
68588;BMP180;55560;52.174;20.996;2024-02-28T05:17:22;100495.40;;;10.70
68588;BMP180;55560;52.174;20.996;2024-02-28T05:19:50;100492.40;;;10.70
68588;BMP180;55560;52.174;20.996;2024-02-28T05:22:17;100495.20;;;10.70
68588;BMP180;55560;52.174;20.996;2024-02-28T05:24:46;100494.20;;;10.70
68588;BMP180;55560;52.174;20.996;2024-02-28T05:27:14;100498.00;;;10.70
68588;BMP180;55560;52.174;20.996;2024-02-28T05:29:42;100503.00;;;10.70
68588;BMP180;55560;52.174;20.996;2024-02-28T05:32:10;100507.80;;;10.70
68588;BMP180;55560;52.174;20.996;2024-02-28T05:34:39;100509.80;;;10.70
68588;BMP180;55560;52.174;20.996;2024-02-28T05:37:07;100513.40;;;10.70
68588;BMP180;55560;52.174;20.996;2024-02-28T05:39:35;100510.40;;;10.68
68588;BMP180;55560;52.174;20.996;2024-02-28T05:42:04;100508.60;;;10.60
68588;BMP180;55560;52.174;20.996;2024-02-28T05:44:32;100512.40;;;10.60
68588;BMP180;55560;52.174;20.996;2024-02-28T05:46:59;100514.40;;;10.60
68588;BMP180;55560;52.174;20.996;2024-02-28T05:49:28;100514.00;;;10.60
68588;BMP180;55560;52.174;20.996;2024-02-28T05:51:55;100520.40;;;10.60
68588;BMP180;55560;52.174;20.996;2024-02-28T05:54:23;100524.20;;;10.60
68588;BMP180;55560;52.174;20.996;2024-02-28T05:56:54;100521.00;;;10.60
68588;BMP180;55560;52.174;20.996;2024-02-28T05:59:22;100523.60;;;10.56
68588;BMP180;55560;52.174;20.996;2024-02-28T06:01:50;100529.00;;;10.60
68588;BMP180;55560;52.174;20.996;2024-02-28T06:04:18;100531.00;;;10.60
68588;BMP180;55560;52.174;20.996;2024-02-28T06:06:46;100524.40;;;10.60
68588;BMP180;55560;52.174;20.996;2024-02-28T06:09:13;100529.20;;;10.60
68588;BMP180;55560;52.174;20.996;2024-02-28T06:11:41;100527.60;;;10.60
68588;BMP180;55560;52.174;20.996;2024-02-28T06:14:09;100538.80;;;10.60
68588;BMP180;55560;52.174;20.996;2024-02-28T06:16:37;100540.00;;;10.60
68588;BMP180;55560;52.174;20.996;2024-02-28T06:19:05;100544.00;;;10.60
68588;BMP180;55560;52.174;20.996;2024-02-28T06:21:33;100546.00;;;10.60
68588;BMP180;55560;52.174;20.996;2024-02-28T06:24:01;100546.60;;;10.60
68588;BMP180;55560;52.174;20.996;2024-02-28T06:26:30;100553.00;;;10.70
68588;BMP180;55560;52.174;20.996;2024-02-28T06:28:58;100556.60;;;10.70
68588;BMP180;55560;52.174;20.996;2024-02-28T06:31:29;100560.20;;;10.70
68588;BMP180;55560;52.174;20.996;2024-02-28T06:33:59;100561.40;;;10.70
68588;BMP180;55560;52.174;20.996;2024-02-28T06:36:27;100561.60;;;10.70
68588;BMP180;55560;52.174;20.996;2024-02-28T06:38:55;100562.20;;;10.70
68588;BMP180;55560;52.174;20.996;2024-02-28T06:41:23;100565.20;;;10.70
68588;BMP180;55560;52.174;20.996;2024-02-28T06:43:51;100567.60;;;10.70
68588;BMP180;55560;52.174;20.996;2024-02-28T06:46:19;100570.40;;;10.70
68588;BMP180;55560;52.174;20.996;2024-02-28T06:48:47;100571.20;;;10.70
68588;BMP180;55560;52.174;20.996;2024-02-28T06:51:16;100573.40;;;10.70
68588;BMP180;55560;52.174;20.996;2024-02-28T06:53:45;100573.80;;;10.70
68588;BMP180;55560;52.174;20.996;2024-02-28T06:56:13;100576.00;;;10.70
68588;BMP180;55560;52.174;20.996;2024-02-28T06:58:41;100576.00;;;10.70
68588;BMP180;55560;52.174;20.996;2024-02-28T07:01:09;100575.80;;;10.70
68588;BMP180;55560;52.174;20.996;2024-02-28T07:03:37;100584.40;;;10.80
68588;BMP180;55560;52.174;20.996;2024-02-28T07:06:05;100588.20;;;10.80
68588;BMP180;55560;52.174;20.996;2024-02-28T07:08:33;100588.20;;;10.82
68588;BMP180;55560;52.174;20.996;2024-02-28T07:11:01;100583.80;;;10.90
68588;BMP180;55560;52.174;20.996;2024-02-28T07:13:30;100584.40;;;10.90
68588;BMP180;55560;52.174;20.996;2024-02-28T07:15:58;100591.00;;;10.90
68588;BMP180;55560;52.174;20.996;2024-02-28T07:18:26;100591.00;;;11.00
68588;BMP180;55560;52.174;20.996;2024-02-28T07:20:56;100585.00;;;11.00
68588;BMP180;55560;52.174;20.996;2024-02-28T07:23:24;100592.40;;;11.04
68588;BMP180;55560;52.174;20.996;2024-02-28T07:25:52;100595.00;;;11.10
68588;BMP180;55560;52.174;20.996;2024-02-28T07:28:20;100595.60;;;11.10
68588;BMP180;55560;52.174;20.996;2024-02-28T07:30:48;100602.00;;;11.20
68588;BMP180;55560;52.174;20.996;2024-02-28T07:33:16;100604.80;;;11.20
68588;BMP180;55560;52.174;20.996;2024-02-28T07:35:48;100604.60;;;11.30
68588;BMP180;55560;52.174;20.996;2024-02-28T07:38:17;100605.60;;;11.30
68588;BMP180;55560;52.174;20.996;2024-02-28T07:40:48;100600.00;;;11.30
68588;BMP180;55560;52.174;20.996;2024-02-28T07:43:16;100601.80;;;11.30
68588;BMP180;55560;52.174;20.996;2024-02-28T07:45:44;100597.20;;;11.40
68588;BMP180;55560;52.174;20.996;2024-02-28T07:48:12;100599.20;;;11.40
68588;BMP180;55560;52.174;20.996;2024-02-28T07:50:40;100598.40;;;11.40
68588;BMP180;55560;52.174;20.996;2024-02-28T07:53:10;100600.20;;;11.40
68588;BMP180;55560;52.174;20.996;2024-02-28T07:55:38;100602.20;;;11.40
68588;BMP180;55560;52.174;20.996;2024-02-28T07:58:06;100606.00;;;11.42
68588;BMP180;55560;52.174;20.996;2024-02-28T08:00:35;100612.20;;;11.50
68588;BMP180;55560;52.174;20.996;2024-02-28T08:03:04;100610.40;;;11.56
68588;BMP180;55560;52.174;20.996;2024-02-28T08:05:32;100610.80;;;11.60
68588;BMP180;55560;52.174;20.996;2024-02-28T08:08:06;100612.20;;;11.60
68588;BMP180;55560;52.174;20.996;2024-02-28T08:10:34;100614.20;;;11.60
68588;BMP180;55560;52.174;20.996;2024-02-28T08:13:06;100617.00;;;11.60
68588;BMP180;55560;52.174;20.996;2024-02-28T08:15:35;100622.60;;;11.60
68588;BMP180;55560;52.174;20.996;2024-02-28T08:18:03;100621.80;;;11.60
68588;BMP180;55560;52.174;20.996;2024-02-28T08:20:31;100618.20;;;11.60
68588;BMP180;55560;52.174;20.996;2024-02-28T08:22:59;100619.80;;;11.60
68588;BMP180;55560;52.174;20.996;2024-02-28T08:25:27;100619.80;;;11.60
68588;BMP180;55560;52.174;20.996;2024-02-28T08:27:55;100618.40;;;11.70
68588;BMP180;55560;52.174;20.996;2024-02-28T08:30:24;100619.60;;;11.70
68588;BMP180;55560;52.174;20.996;2024-02-28T08:32:53;100619.80;;;11.70
68588;BMP180;55560;52.174;20.996;2024-02-28T08:35:21;100626.40;;;11.70
68588;BMP180;55560;52.174;20.996;2024-02-28T08:37:51;100631.20;;;11.80
68588;BMP180;55560;52.174;20.996;2024-02-28T08:40:19;100629.00;;;11.80
68588;BMP180;55560;52.174;20.996;2024-02-28T08:42:47;100620.00;;;11.82
68588;BMP180;55560;52.174;20.996;2024-02-28T08:45:17;100622.00;;;11.90
68588;BMP180;55560;52.174;20.996;2024-02-28T08:47:45;100615.20;;;11.90
68588;BMP180;55560;52.174;20.996;2024-02-28T08:50:13;100620.80;;;11.96
68588;BMP180;55560;52.174;20.996;2024-02-28T08:52:41;100623.80;;;12.00
68588;BMP180;55560;52.174;20.996;2024-02-28T08:55:09;100624.00;;;12.08
68588;BMP180;55560;52.174;20.996;2024-02-28T08:57:37;100622.60;;;12.10
68588;BMP180;55560;52.174;20.996;2024-02-28T09:00:06;100622.40;;;12.20
68588;BMP180;55560;52.174;20.996;2024-02-28T09:02:36;100622.60;;;12.22
68588;BMP180;55560;52.174;20.996;2024-02-28T09:05:05;100619.60;;;12.30
68588;BMP180;55560;52.174;20.996;2024-02-28T09:07:33;100627.80;;;12.40
68588;BMP180;55560;52.174;20.996;2024-02-28T09:10:04;100627.60;;;12.50
68588;BMP180;55560;52.174;20.996;2024-02-28T09:12:33;100625.80;;;12.50
68588;BMP180;55560;52.174;20.996;2024-02-28T09:15:01;100627.00;;;12.60
68588;BMP180;55560;52.174;20.996;2024-02-28T09:17:29;100623.60;;;12.70
68588;BMP180;55560;52.174;20.996;2024-02-28T09:19:59;100622.80;;;12.80
68588;BMP180;55560;52.174;20.996;2024-02-28T09:22:29;100624.00;;;12.80
68588;BMP180;55560;52.174;20.996;2024-02-28T09:24:57;100624.80;;;12.90
68588;BMP180;55560;52.174;20.996;2024-02-28T09:27:25;100629.20;;;12.90
68588;BMP180;55560;52.174;20.996;2024-02-28T09:29:53;100630.60;;;13.00
68588;BMP180;55560;52.174;20.996;2024-02-28T09:32:22;100631.60;;;13.00
68588;BMP180;55560;52.174;20.996;2024-02-28T09:34:49;100625.60;;;13.10
68588;BMP180;55560;52.174;20.996;2024-02-28T09:37:17;100631.60;;;13.16
68588;BMP180;55560;52.174;20.996;2024-02-28T09:39:45;100635.40;;;13.20
68588;BMP180;55560;52.174;20.996;2024-02-28T09:42:13;100630.20;;;13.30
68588;BMP180;55560;52.174;20.996;2024-02-28T09:44:43;100631.60;;;13.30
68588;BMP180;55560;52.174;20.996;2024-02-28T09:47:11;100632.60;;;13.40
68588;BMP180;55560;52.174;20.996;2024-02-28T09:49:41;100635.00;;;13.40
68588;BMP180;55560;52.174;20.996;2024-02-28T09:52:09;100636.80;;;13.50
68588;BMP180;55560;52.174;20.996;2024-02-28T09:54:37;100637.80;;;13.50
68588;BMP180;55560;52.174;20.996;2024-02-28T09:57:05;100641.80;;;13.60
68588;BMP180;55560;52.174;20.996;2024-02-28T09:59:34;100644.40;;;13.60
68588;BMP180;55560;52.174;20.996;2024-02-28T10:02:19;100645.60;;;13.70
68588;BMP180;55560;52.174;20.996;2024-02-28T10:04:49;100645.60;;;13.70
68588;BMP180;55560;52.174;20.996;2024-02-28T10:07:17;100645.80;;;13.70
68588;BMP180;55560;52.174;20.996;2024-02-28T10:09:45;100645.40;;;13.74
68588;BMP180;55560;52.174;20.996;2024-02-28T10:12:14;100650.60;;;13.70
68588;BMP180;55560;52.174;20.996;2024-02-28T10:14:42;100652.00;;;13.72
68588;BMP180;55560;52.174;20.996;2024-02-28T10:17:10;100650.20;;;13.70
68588;BMP180;55560;52.174;20.996;2024-02-28T10:19:38;100649.40;;;13.64
68588;BMP180;55560;52.174;20.996;2024-02-28T10:22:07;100653.20;;;13.60
68588;BMP180;55560;52.174;20.996;2024-02-28T10:24:35;100655.40;;;13.60
68588;BMP180;55560;52.174;20.996;2024-02-28T10:27:05;100656.80;;;13.60
68588;BMP180;55560;52.174;20.996;2024-02-28T10:29:33;100656.40;;;13.58
68588;BMP180;55560;52.174;20.996;2024-02-28T10:32:01;100658.20;;;13.50
68588;BMP180;55560;52.174;20.996;2024-02-28T10:34:31;100658.80;;;13.50
68588;BMP180;55560;52.174;20.996;2024-02-28T10:36:59;100660.80;;;13.50
68588;BMP180;55560;52.174;20.996;2024-02-28T10:39:27;100663.00;;;13.50
68588;BMP180;55560;52.174;20.996;2024-02-28T10:41:59;100661.80;;;13.50
68588;BMP180;55560;52.174;20.996;2024-02-28T10:44:29;100655.20;;;13.50
68588;BMP180;55560;52.174;20.996;2024-02-28T10:47:00;100655.20;;;13.46
68588;BMP180;55560;52.174;20.996;2024-02-28T10:49:29;100652.60;;;13.46
68588;BMP180;55560;52.174;20.996;2024-02-28T10:51:59;100657.00;;;13.50
68588;BMP180;55560;52.174;20.996;2024-02-28T10:54:29;100658.00;;;13.50
68588;BMP180;55560;52.174;20.996;2024-02-28T10:56:59;100662.40;;;13.50
68588;BMP180;55560;52.174;20.996;2024-02-28T10:59:27;100664.00;;;13.52
68588;BMP180;55560;52.174;20.996;2024-02-28T11:01:56;100663.20;;;13.50
68588;BMP180;55560;52.174;20.996;2024-02-28T11:04:24;100669.40;;;13.50
68588;BMP180;55560;52.174;20.996;2024-02-28T11:06:55;100665.40;;;13.50
68588;BMP180;55560;52.174;20.996;2024-02-28T11:09:25;100663.80;;;13.50
68588;BMP180;55560;52.174;20.996;2024-02-28T11:11:56;100665.40;;;13.50
68588;BMP180;55560;52.174;20.996;2024-02-28T11:14:24;100668.40;;;13.50
68588;BMP180;55560;52.174;20.996;2024-02-28T11:17:05;100664.80;;;13.50
68588;BMP180;55560;52.174;20.996;2024-02-28T11:19:33;100665.60;;;13.50
68588;BMP180;55560;52.174;20.996;2024-02-28T11:22:05;100666.20;;;13.50
68588;BMP180;55560;52.174;20.996;2024-02-28T11:24:35;100668.40;;;13.50
68588;BMP180;55560;52.174;20.996;2024-02-28T11:27:05;100662.80;;;13.50
68588;BMP180;55560;52.174;20.996;2024-02-28T11:29:34;100668.20;;;13.50
68588;BMP180;55560;52.174;20.996;2024-02-28T11:32:02;100665.00;;;13.52
68588;BMP180;55560;52.174;20.996;2024-02-28T11:34:30;100671.40;;;13.58
68588;BMP180;55560;52.174;20.996;2024-02-28T11:36:58;100673.20;;;13.60
68588;BMP180;55560;52.174;20.996;2024-02-28T11:39:27;100674.80;;;13.50
68588;BMP180;55560;52.174;20.996;2024-02-28T11:41:55;100674.00;;;13.40
68588;BMP180;55560;52.174;20.996;2024-02-28T11:44:23;100676.40;;;13.36
68588;BMP180;55560;52.174;20.996;2024-02-28T11:46:51;100671.20;;;13.30
68588;BMP180;55560;52.174;20.996;2024-02-28T11:49:19;100669.60;;;13.30
68588;BMP180;55560;52.174;20.996;2024-02-28T11:51:48;100674.80;;;13.22
68588;BMP180;55560;52.174;20.996;2024-02-28T11:54:16;100675.60;;;13.20
68588;BMP180;55560;52.174;20.996;2024-02-28T11:56:44;100673.40;;;13.20
68588;BMP180;55560;52.174;20.996;2024-02-28T11:59:12;100675.60;;;13.20
68588;BMP180;55560;52.174;20.996;2024-02-28T12:01:42;100670.40;;;13.12
68588;BMP180;55560;52.174;20.996;2024-02-28T12:04:13;100676.20;;;13.10
68588;BMP180;55560;52.174;20.996;2024-02-28T12:06:41;100670.80;;;13.08
68588;BMP180;55560;52.174;20.996;2024-02-28T12:09:12;100671.20;;;13.00
68588;BMP180;55560;52.174;20.996;2024-02-28T12:11:54;100670.20;;;13.00
68588;BMP180;55560;52.174;20.996;2024-02-28T12:14:22;100669.60;;;13.00
68588;BMP180;55560;52.174;20.996;2024-02-28T12:16:50;100672.60;;;13.00
68588;BMP180;55560;52.174;20.996;2024-02-28T12:19:19;100677.60;;;12.90
68588;BMP180;55560;52.174;20.996;2024-02-28T12:21:48;100676.80;;;12.90
68588;BMP180;55560;52.174;20.996;2024-02-28T12:24:16;100680.40;;;12.90
68588;BMP180;55560;52.174;20.996;2024-02-28T12:26:44;100679.60;;;12.90
68588;BMP180;55560;52.174;20.996;2024-02-28T12:29:13;100686.80;;;12.76
68588;BMP180;55560;52.174;20.996;2024-02-28T12:31:40;100685.20;;;12.70
68588;BMP180;55560;52.174;20.996;2024-02-28T12:34:10;100686.20;;;12.60
68588;BMP180;55560;52.174;20.996;2024-02-28T12:36:38;100691.00;;;12.60
68588;BMP180;55560;52.174;20.996;2024-02-28T12:39:06;100686.60;;;12.50
68588;BMP180;55560;52.174;20.996;2024-02-28T12:41:34;100689.20;;;12.50
68588;BMP180;55560;52.174;20.996;2024-02-28T12:44:02;100692.00;;;12.50
68588;BMP180;55560;52.174;20.996;2024-02-28T12:46:31;100691.40;;;12.40
68588;BMP180;55560;52.174;20.996;2024-02-28T12:48:58;100694.80;;;12.34
68588;BMP180;55560;52.174;20.996;2024-02-28T12:51:43;100691.40;;;12.20
68588;BMP180;55560;52.174;20.996;2024-02-28T12:54:12;100697.40;;;12.20
68588;BMP180;55560;52.174;20.996;2024-02-28T12:56:43;100696.20;;;12.10
68588;BMP180;55560;52.174;20.996;2024-02-28T12:59:13;100698.60;;;12.10
68588;BMP180;55560;52.174;20.996;2024-02-28T13:01:41;100698.00;;;12.00
68588;BMP180;55560;52.174;20.996;2024-02-28T13:04:10;100701.20;;;12.00
68588;BMP180;55560;52.174;20.996;2024-02-28T13:06:38;100701.20;;;12.00
68588;BMP180;55560;52.174;20.996;2024-02-28T13:09:07;100701.40;;;12.00
68588;BMP180;55560;52.174;20.996;2024-02-28T13:11:40;100706.00;;;11.90
68588;BMP180;55560;52.174;20.996;2024-02-28T13:14:09;100700.60;;;11.90
68588;BMP180;55560;52.174;20.996;2024-02-28T13:16:39;100702.40;;;11.90
68588;BMP180;55560;52.174;20.996;2024-02-28T13:19:07;100704.40;;;11.80
68588;BMP180;55560;52.174;20.996;2024-02-28T13:21:36;100709.00;;;11.70
68588;BMP180;55560;52.174;20.996;2024-02-28T13:24:05;100711.20;;;11.60
68588;BMP180;55560;52.174;20.996;2024-02-28T13:26:33;100714.80;;;11.60
68588;BMP180;55560;52.174;20.996;2024-02-28T13:29:01;100714.00;;;11.56
68588;BMP180;55560;52.174;20.996;2024-02-28T13:31:29;100713.20;;;11.44
68588;BMP180;55560;52.174;20.996;2024-02-28T13:33:57;100712.20;;;11.40
68588;BMP180;55560;52.174;20.996;2024-02-28T13:36:25;100710.80;;;11.40
68588;BMP180;55560;52.174;20.996;2024-02-28T13:38:53;100714.20;;;11.40
68588;BMP180;55560;52.174;20.996;2024-02-28T13:41:21;100716.40;;;11.40
68588;BMP180;55560;52.174;20.996;2024-02-28T13:43:49;100718.40;;;11.40
68588;BMP180;55560;52.174;20.996;2024-02-28T13:46:17;100720.80;;;11.30
68588;BMP180;55560;52.174;20.996;2024-02-28T13:48:47;100722.00;;;11.20
68588;BMP180;55560;52.174;20.996;2024-02-28T13:51:16;100721.40;;;11.20